Time;durP1;ratioP1;P1;durP2;ratioP2;P2;SDS_P1;SDS_P2;PMS_P1;PMS_P2;Temp;Humidity;BMP_temperature;BMP_pressure;BME280_temperature;BME280_humidity;BME280_pressure;Samples;Min_cycle;Max_cycle;Signal;HPM_P1;HPM_P2
2022/11/01 00:02:08;;;;;;;8.63;5.80;;;;;;;6.62;88.28;96318.74;1729893;81;21057;-61
2022/11/01 00:04:35;;;;;;;6.97;5.47;;;;;;;6.62;88.41;96320.92;1741330;81;21029;-62
2022/11/01 00:07:02;;;;;;;9.23;5.77;;;;;;;6.64;88.40;96313.08;1730419;81;21057;-61
2022/11/01 00:09:29;;;;;;;6.53;5.03;;;;;;;6.69;88.59;96313.56;1735454;81;21120;-61
2022/11/01 00:11:55;;;;;;;11.50;7.30;;;;;;;6.72;88.39;96314.02;1727869;81;21049;-62
2022/11/01 00:14:22;;;;;;;13.57;8.30;;;;;;;6.74;88.32;96315.35;1733195;81;20970;-61
2022/11/01 00:16:49;;;;;;;12.67;6.60;;;;;;;6.69;87.69;96316.18;1746315;81;21492;-62
2022/11/01 00:19:16;;;;;;;23.77;9.10;;;;;;;6.71;87.70;96316.20;1727734;81;21069;-62
2022/11/01 00:21:42;;;;;;;20.90;10.63;;;;;;;6.70;86.88;96315.73;1740278;81;20994;-62
2022/11/01 00:24:09;;;;;;;23.47;10.93;;;;;;;6.71;87.10;96308.34;1723276;81;20994;-62
2022/11/01 00:26:36;;;;;;;19.70;10.47;;;;;;;6.70;86.84;96306.56;1742532;81;21499;-61
2022/11/01 00:29:03;;;;;;;20.30;10.53;;;;;;;6.65;85.83;96309.58;1735213;81;21050;-62
2022/11/01 00:31:30;;;;;;;25.53;12.30;;;;;;;6.57;86.04;96317.38;1735181;81;21014;-61
2022/11/01 00:33:57;;;;;;;22.33;9.93;;;;;;;6.57;86.28;96315.20;1746488;81;21590;-62
2022/11/01 00:36:23;;;;;;;15.90;8.43;;;;;;;6.57;86.20;96314.77;1744165;81;21025;-62
2022/11/01 00:38:51;;;;;;;16.40;7.77;;;;;;;6.50;85.58;96314.26;1739012;81;20982;-62
2022/11/01 00:41:19;;;;;;;14.23;7.53;;;;;;;6.41;85.66;96313.76;1730950;81;21022;-62
2022/11/01 00:43:46;;;;;;;14.77;8.70;;;;;;;6.28;86.03;96310.59;1731933;81;21025;-62
2022/11/01 00:46:13;;;;;;;15.77;8.27;;;;;;;6.19;87.11;96318.34;1732559;81;21023;-61
2022/11/01 00:48:40;;;;;;;18.20;8.63;;;;;;;6.13;87.60;96311.75;1745616;81;21041;-61
2022/11/01 00:51:07;;;;;;;16.50;8.07;;;;;;;6.13;87.73;96309.13;1734393;81;21018;-61
2022/11/01 00:53:33;;;;;;;18.90;9.73;;;;;;;6.09;87.88;96310.82;1740603;81;21011;-62
2022/11/01 00:56:02;;;;;;;15.57;7.30;;;;;;;6.08;88.45;96318.25;1736731;81;21089;-62
2022/11/01 00:58:29;;;;;;;14.37;7.30;;;;;;;6.10;88.70;96309.98;1729675;81;21116;-62
2022/11/01 01:00:56;;;;;;;16.70;7.47;;;;;;;6.14;89.27;96310.44;1744665;81;21513;-62
2022/11/01 01:03:23;;;;;;;12.77;7.13;;;;;;;6.17;89.19;96305.66;1740692;81;21050;-63
2022/11/01 01:05:51;;;;;;;9.50;6.70;;;;;;;6.20;88.67;96310.52;1742010;81;21081;-62
2022/11/01 01:08:18;;;;;;;9.37;5.47;;;;;;;6.24;89.01;96310.09;1726273;81;20989;-62
2022/11/01 01:10:46;;;;;;;16.07;5.80;;;;;;;6.26;89.33;96298.77;1726743;81;21129;-61
2022/11/01 01:13:13;;;;;;;13.87;5.77;;;;;;;6.28;89.00;96300.98;1733162;81;21144;-62
2022/11/01 01:15:41;;;;;;;12.87;5.83;;;;;;;6.34;89.03;96305.83;1736719;81;21758;-61
2022/11/01 01:18:08;;;;;;;7.53;4.73;;;;;;;6.32;88.30;96299.25;1736081;81;21025;-62
2022/11/01 01:20:35;;;;;;;11.77;4.90;;;;;;;6.29;87.71;96302.72;1737809;81;21609;-61
2022/11/01 01:23:02;;;;;;;10.87;5.07;;;;;;;6.29;87.09;96300.54;1726132;81;21017;-61
2022/11/01 01:25:29;;;;;;;11.53;4.40;;;;;;;6.32;87.12;96303.18;1744598;81;21489;-62
2022/11/01 01:27:56;;;;;;;9.97;3.90;;;;;;;6.27;86.81;96297.02;1741083;81;21492;-62
2022/11/01 01:30:22;;;;;;;9.17;4.17;;;;;;;6.26;86.85;96300.08;1730927;81;21061;-61
2022/11/01 01:32:49;;;;;;;8.07;5.00;;;;;;;6.22;86.45;96302.25;1729703;81;21021;-62
2022/11/01 01:35:16;;;;;;;11.27;4.70;;;;;;;6.21;86.61;96299.59;1736195;81;21148;-62
2022/11/01 01:37:44;;;;;;;11.93;5.50;;;;;;;6.25;86.40;96301.39;1730088;81;21083;-62
2022/11/01 01:40:11;;;;;;;9.27;4.60;;;;;;;6.14;86.64;96299.95;1738386;81;21150;-61
2022/11/01 01:42:41;;;;;;;10.20;5.00;;;;;;;6.18;86.87;96299.57;1742603;81;21028;-61
2022/11/01 01:45:32;;;;;;;11.47;5.00;;;;;;;6.21;86.78;96295.66;1731223;81;21052;-61
2022/11/01 01:48:19;;;;;;;6.77;4.17;;;;;;;6.17;87.25;96299.98;1731070;81;21049;-62
2022/11/01 01:50:54;;;;;;;8.47;5.20;;;;;;;6.07;88.38;96296.82;1734580;81;21001;-61
2022/11/01 01:53:38;;;;;;;13.83;6.27;;;;;;;6.12;88.21;96291.63;1726889;81;21026;-61
2022/11/01 01:56:15;;;;;;;11.53;5.67;;;;;;;6.23;88.92;96292.20;1736074;81;21026;-62
2022/11/01 01:58:54;;;;;;;10.47;5.20;;;;;;;6.26;88.63;96290.03;1737135;81;21140;-62
2022/11/01 02:01:20;;;;;;;13.03;6.17;;;;;;;6.26;88.14;96290.91;1733989;81;21073;-62
2022/11/01 02:03:48;;;;;;;12.53;6.37;;;;;;;6.25;87.98;96289.60;1726498;81;21045;-61
2022/11/01 02:06:18;;;;;;;8.57;4.50;;;;;;;6.26;88.42;96292.22;1744543;81;21018;-62
2022/11/01 02:08:49;;;;;;;8.07;4.00;;;;;;;6.31;88.46;96288.33;1736244;81;21041;-61
2022/11/01 02:11:17;;;;;;;5.90;4.13;;;;;;;6.23;87.96;96295.25;1733278;81;21050;-61
2022/11/01 02:13:43;;;;;;;14.83;6.13;;;;;;;6.14;89.44;96292.53;1734443;81;22445;-62
2022/11/01 02:16:41;;;;;;;13.23;5.93;;;;;;;6.24;89.65;96294.38;1735256;81;20994;-62
2022/11/01 02:20:04;;;;;;;9.27;6.13;;;;;;;6.25;90.54;96294.84;1739689;81;21066;-61
2022/11/01 02:23:01;;;;;;;7.50;5.20;;;;;;;6.23;91.63;96290.88;1734358;81;21014;-61
2022/11/01 02:25:45;;;;;;;9.00;4.87;;;;;;;6.27;91.41;96290.47;1744025;81;21051;-62
2022/11/01 02:28:54;;;;;;;8.13;3.80;;;;;;;6.31;90.54;96287.46;1734252;81;21121;-61
2022/11/01 02:31:52;;;;;;;9.93;5.20;;;;;;;6.31;89.27;96288.33;1741208;81;21033;-62
2022/11/01 02:34:27;;;;;;;7.90;3.67;;;;;;;6.28;89.20;96281.77;1742918;81;21035;-63
2022/11/01 02:37:02;;;;;;;8.33;5.83;;;;;;;6.23;88.76;96286.08;1741619;81;20998;-61
2022/11/01 02:39:33;;;;;;;10.10;6.57;;;;;;;6.24;89.30;96287.83;1733332;81;21080;-61
2022/11/01 02:42:08;;;;;;;9.00;6.27;;;;;;;6.27;90.58;96282.20;1741391;81;21531;-61
2022/11/01 02:44:42;;;;;;;9.60;5.67;;;;;;;6.35;90.65;96289.23;1740440;81;21045;-61
2022/11/01 02:47:11;;;;;;;8.13;6.13;;;;;;;6.36;90.95;96284.01;1736150;81;21033;-61
2022/11/01 02:49:45;;;;;;;7.67;5.63;;;;;;;6.39;91.01;96285.78;1739497;81;21017;-61
2022/11/01 02:52:19;;;;;;;7.57;5.80;;;;;;;6.39;91.15;96285.78;1726866;81;21025;-61
2022/11/01 02:57:41;;;;;;;11.23;6.50;;;;;;;6.37;91.45;96287.50;1721540;82;21050;-62
2022/11/01 03:00:33;;;;;;;9.63;6.27;;;;;;;6.37;91.98;96291.44;1709600;82;21038;-62
2022/11/01 03:03:31;;;;;;;7.30;5.77;;;;;;;6.36;92.00;96289.25;1705978;82;21009;-62
2022/11/01 03:06:07;;;;;;;6.80;5.43;;;;;;;6.26;91.76;96291.34;1722417;82;21029;-62
2022/11/01 03:08:48;;;;;;;6.83;5.17;;;;;;;6.27;91.53;96293.99;1721888;82;21009;-62
2022/11/01 03:11:22;;;;;;;8.93;5.80;;;;;;;6.27;91.13;96288.75;1717427;82;21037;-63
2022/11/01 03:14:15;;;;;;;8.57;5.80;;;;;;;6.23;91.28;96287.39;1713823;82;21116;-62
2022/11/01 03:17:08;;;;;;;11.03;4.85;;;;;;;6.28;91.37;96292.24;1717416;82;21112;-61
2022/11/01 03:19:49;;;;;;;6.35;2.75;;;;;;;6.20;90.29;96286.94;1722411;82;21465;-61
2022/11/01 03:22:29;;;;;;;8.80;3.37;;;;;;;6.18;89.71;96286.03;1715563;82;21555;-61
2022/11/01 03:25:43;;;;;;;9.70;3.30;;;;;;;6.06;88.20;96288.53;1688949;84;21478;-62
2022/11/01 03:28:32;;;;;;;;;;;;;;;6.01;88.81;96286.30;1719796;82;21070;-62
2022/11/01 03:31:05;;;;;;;8.70;3.27;;;;;;;5.90;87.08;96295.33;1711392;82;20138;-62
2022/11/01 03:33:34;;;;;;;8.83;3.10;;;;;;;5.83;87.29;96289.57;1717729;82;21034;-61
2022/11/01 03:36:07;;;;;;;4.70;2.43;;;;;;;5.82;87.50;96295.65;1714724;83;21072;-61
2022/11/01 03:38:41;;;;;;;6.67;2.97;;;;;;;5.78;86.55;96296.50;1706637;82;21002;-62
2022/11/01 03:41:13;;;;;;;9.37;3.73;;;;;;;5.70;86.38;96300.78;1716031;82;21519;-62
2022/11/01 03:43:40;;;;;;;10.73;3.23;;;;;;;5.59;87.41;96298.91;1714925;83;20998;-62
2022/11/01 03:46:08;;;;;;;6.70;3.00;;;;;;;5.51;87.74;96300.53;1709101;83;21117;-61
2022/11/01 03:48:40;;;;;;;7.87;3.87;;;;;;;5.43;88.59;96304.80;1717293;82;22528;-62
2022/11/01 03:51:07;;;;;;;8.93;4.30;;;;;;;5.49;89.10;96303.55;1723114;82;21016;-62
2022/11/01 03:53:34;;;;;;;6.90;4.50;;;;;;;5.55;89.56;96299.72;1722388;82;21058;-62
2022/11/01 03:56:00;;;;;;;7.23;4.63;;;;;;;5.59;89.67;96305.45;1722765;82;21022;-62
2022/11/01 03:58:40;;;;;;;9.03;4.80;;;;;;;5.59;90.25;96304.15;1722799;82;21025;-62
2022/11/01 04:00:55;;;;;;;7.13;3.10;;;;;;;5.57;90.84;96307.17;1722934;82;21488;-62
2022/11/01 04:03:21;;;;;;;7.03;4.37;;;;;;;5.53;91.18;96304.49;1713999;83;21049;-61
2022/11/01 04:05:48;;;;;;;6.60;4.27;;;;;;;5.53;91.06;96300.56;1721459;82;21034;-61
2022/11/01 04:08:15;;;;;;;8.53;4.50;;;;;;;5.49;91.06;96297.45;1714087;82;21022;-61
2022/11/01 04:10:43;;;;;;;8.93;4.60;;;;;;;5.55;90.94;96296.23;1711990;83;21017;-61
2022/11/01 04:13:10;;;;;;;8.67;3.63;;;;;;;5.59;91.36;96295.39;1712137;82;21515;-61
2022/11/01 04:21:12;;;;;;;6.13;2.50;;;;;;;5.66;88.81;96295.05;1716894;82;21092;-61
2022/11/01 04:23:40;;;;;;;12.07;3.50;;;;;;;5.56;87.14;96292.30;1712639;83;21041;-61
2022/11/01 04:26:10;;;;;;;6.03;2.40;;;;;;;5.54;87.22;96296.64;1718644;82;21548;-62
2022/11/01 04:28:37;;;;;;;13.70;4.53;;;;;;;5.47;86.48;96298.76;1717162;82;21041;-62
2022/11/01 04:31:05;;;;;;;11.20;4.40;;;;;;;5.44;87.06;96298.69;1722983;82;21080;-62
2022/11/01 04:33:31;;;;;;;15.67;6.23;;;;;;;5.28;87.24;96300.68;1722227;82;20989;-61
2022/11/01 04:36:07;;;;;;;18.17;9.97;;;;;;;5.18;87.93;96298.37;1706141;83;21101;-60
2022/11/01 04:38:34;;;;;;;13.23;7.03;;;;;;;5.19;88.66;96305.34;1717256;83;21049;-61
2022/11/01 04:41:01;;;;;;;10.70;6.70;;;;;;;5.26;89.44;96295.41;1722412;82;22086;-60
2022/11/01 04:43:27;;;;;;;11.67;4.13;;;;;;;5.34;90.68;96300.34;1711158;83;21568;-60
2022/11/01 04:45:55;;;;;;;15.33;4.60;;;;;;;5.40;89.64;96300.41;1724203;82;21030;-60
2022/11/01 04:48:23;;;;;;;15.13;6.97;;;;;;;5.45;88.77;96300.47;1727622;82;21532;-59
2022/11/01 04:50:50;;;;;;;11.43;4.33;;;;;;;5.41;89.32;96295.61;1720070;83;20999;-60
2022/11/01 04:53:17;;;;;;;13.77;4.60;;;;;;;5.43;89.39;96295.64;1712271;83;21462;-59
2022/11/01 04:55:43;;;;;;;12.87;7.70;;;;;;;5.47;88.93;96294.83;1718407;83;21021;-59
2022/11/01 04:58:10;;;;;;;17.23;8.87;;;;;;;5.52;89.32;96294.86;1711550;82;21017;-59
2022/11/01 05:00:38;;;;;;;17.50;9.37;;;;;;;5.57;89.70;96296.70;1718192;82;21042;-60
2022/11/01 05:03:07;;;;;;;17.63;9.80;;;;;;;5.60;88.41;96298.48;1715751;82;21045;-60
2022/11/01 05:05:35;;;;;;;11.73;6.30;;;;;;;5.53;87.39;96301.44;1722167;83;21105;-60
2022/11/01 05:08:04;;;;;;;17.53;6.37;;;;;;;5.51;87.41;96306.20;1717444;82;21092;-60
2022/11/01 05:10:33;;;;;;;17.70;5.67;;;;;;;5.54;87.44;96302.31;1723119;82;21025;-60
2022/11/01 05:13:01;;;;;;;15.43;6.17;;;;;;;5.51;87.27;96307.52;1722554;82;21078;-60
2022/11/01 05:15:27;;;;;;;21.13;9.90;;;;;;;5.45;87.40;96307.02;1716987;83;21017;-60
2022/11/01 05:17:54;;;;;;;15.07;7.83;;;;;;;5.46;87.90;96303.96;1717429;83;21484;-60
2022/11/01 05:20:21;;;;;;;19.70;7.77;;;;;;;5.51;87.56;96308.82;1713321;83;21610;-60
2022/11/01 05:22:48;;;;;;;15.33;6.70;;;;;;;5.49;87.61;96314.02;1688787;85;21610;-60
2022/11/01 05:25:16;;;;;;;12.57;5.47;;;;;;;5.51;87.64;96308.82;1717327;82;21056;-60
2022/11/01 05:27:43;;;;;;;16.63;6.97;;;;;;;5.54;87.75;96306.23;1722114;82;21075;-60
2022/11/01 05:30:11;;;;;;;14.40;7.53;;;;;;;5.55;87.59;96306.27;1717427;82;21045;-60
2022/11/01 05:32:38;;;;;;;18.40;10.30;;;;;;;5.61;87.79;96302.84;1715990;82;21069;-60
2022/11/01 05:35:05;;;;;;;29.77;12.50;;;;;;;5.60;87.57;96303.27;1714266;83;21008;-60
2022/11/01 05:37:32;;;;;;;22.20;9.63;;;;;;;5.60;87.82;96299.34;1687799;84;21093;-60
2022/11/01 05:39:58;;;;;;;18.87;8.47;;;;;;;5.58;87.83;96302.80;1713849;82;21026;-59
2022/11/01 05:42:25;;;;;;;26.10;9.43;;;;;;;5.60;88.02;96301.09;1706297;83;21162;-60
2022/11/01 05:44:52;;;;;;;21.17;8.03;;;;;;;5.61;88.11;96301.53;1716646;82;21120;-60
2022/11/01 05:47:18;;;;;;;20.57;9.63;;;;;;;5.70;88.11;96304.70;1710823;82;21025;-60
2022/11/01 05:49:45;;;;;;;19.70;8.90;;;;;;;5.81;88.50;96307.00;1722592;82;21032;-60
2022/11/01 05:52:12;;;;;;;19.63;8.33;;;;;;;5.94;88.69;96304.98;1722409;82;21077;-61
2022/11/01 05:54:38;;;;;;;18.10;8.30;;;;;;;5.98;87.29;96309.41;1717063;82;21073;-62
2022/11/01 05:57:05;;;;;;;23.83;8.03;;;;;;;5.91;87.07;96309.30;1716665;83;21108;-63
2022/11/01 05:59:32;;;;;;;18.90;7.13;;;;;;;5.93;87.47;96311.06;1732653;82;21054;-60
2022/11/01 06:01:58;;;;;;;22.77;12.90;;;;;;;5.95;87.47;96309.38;1725193;82;21103;-61
2022/11/01 06:04:25;;;;;;;20.73;9.90;;;;;;;5.98;87.52;96314.64;1720026;81;20995;-60
2022/11/01 06:06:52;;;;;;;15.33;7.77;;;;;;;5.95;87.44;96310.69;1718620;83;21082;-61
2022/11/01 06:09:18;;;;;;;22.07;12.00;;;;;;;5.94;87.49;96316.77;1718601;83;21023;-61
2022/11/01 06:11:45;;;;;;;28.33;14.30;;;;;;;5.88;87.87;96310.14;1720832;83;21120;-61
2022/11/01 06:14:12;;;;;;;26.87;14.13;;;;;;;5.97;88.69;96306.36;1712678;83;21127;-61
2022/11/01 06:16:39;;;;;;;24.27;14.57;;;;;;;6.03;88.28;96310.77;1717311;83;21130;-63
2022/11/01 06:19:06;;;;;;;32.57;20.83;;;;;;;6.02;87.96;96299.42;1713515;83;21474;-62
2022/11/01 06:21:32;;;;;;;32.37;18.97;;;;;;;6.02;88.14;96300.73;1717503;83;22241;-62
2022/11/01 06:23:59;;;;;;;20.73;12.10;;;;;;;6.04;88.77;96295.05;1716230;83;21047;-63
2022/11/01 06:26:26;;;;;;;15.07;8.67;;;;;;;6.09;89.46;96302.96;1719785;83;21102;-64
2022/11/01 06:28:52;;;;;;;18.93;11.37;;;;;;;6.16;89.77;96302.61;1716803;83;21099;-61
2022/11/01 06:31:20;;;;;;;13.97;9.57;;;;;;;6.26;89.91;96300.08;1718183;82;20996;-63
2022/11/01 06:33:50;;;;;;;10.83;7.57;;;;;;;6.28;89.98;96298.36;1718832;83;21066;-65
2022/11/01 06:36:17;;;;;;;11.90;7.23;;;;;;;6.34;89.84;96302.77;1719220;83;21098;-64
2022/11/01 06:38:44;;;;;;;13.43;8.43;;;;;;;6.45;90.03;96300.23;1716415;83;21046;-62
2022/11/01 06:41:10;;;;;;;17.00;10.87;;;;;;;6.48;89.49;96297.66;1720415;83;21058;-65
2022/11/01 06:43:37;;;;;;;16.23;10.20;;;;;;;6.53;90.30;96293.34;1711924;83;21542;-62
2022/11/01 06:46:04;;;;;;;13.43;8.70;;;;;;;6.63;90.36;96295.17;1717855;83;21168;-64
2022/11/01 06:48:31;;;;;;;12.93;9.13;;;;;;;6.71;89.96;96297.84;1718417;83;22495;-62
2022/11/01 06:50:57;;;;;;;10.73;7.53;;;;;;;6.75;89.99;96294.80;1717825;83;21079;-63
2022/11/01 06:53:24;;;;;;;10.60;7.23;;;;;;;;;;1718959;81;21038;-62
2022/11/01 06:55:51;;;;;;;8.67;5.83;;;;;;;6.90;89.80;96301.06;1718725;83;21564;-63
2022/11/01 06:58:18;;;;;;;7.47;5.03;;;;;;;7.00;89.87;96299.79;1719775;81;21046;-64
2022/11/01 07:00:44;;;;;;;22.17;19.13;;;;;;;7.05;89.76;96304.19;1716953;82;21078;-63
2022/11/01 07:03:13;;;;;;;11.83;6.10;;;;;;;7.12;89.86;96303.80;1717874;83;21036;-62
2022/11/01 07:05:41;;;;;;;9.37;7.20;;;;;;;7.17;89.72;96305.16;1709954;83;21588;-63
2022/11/01 07:08:11;;;;;;;10.40;8.60;;;;;;;7.22;89.86;96301.68;1716484;83;21599;-64
2022/11/01 07:10:41;;;;;;;8.13;6.33;;;;;;;7.27;89.62;96293.84;1718355;82;21158;-62
2022/11/01 07:13:11;;;;;;;12.30;8.93;;;;;;;7.29;89.28;96297.36;1718328;81;21039;-64
2022/11/01 07:15:39;;;;;;;9.10;6.93;;;;;;;7.41;89.50;96293.48;1718086;83;22262;-64
2022/11/01 07:18:09;;;;;;;9.10;6.90;;;;;;;7.51;89.26;96299.22;1713319;83;21374;-63
2022/11/01 07:20:40;;;;;;;9.67;6.10;;;;;;;7.64;89.51;96298.84;1716964;83;21007;-62
2022/11/01 07:23:07;;;;;;;14.13;9.50;;;;;;;7.72;89.26;96292.30;1720809;83;21626;-62
2022/11/01 07:25:34;;;;;;;12.33;8.83;;;;;;;7.78;89.18;96297.11;1716571;83;21052;-63
2022/11/01 07:28:01;;;;;;;17.60;14.90;;;;;;;7.80;88.67;96297.13;1716284;83;21574;-62
2022/11/01 07:30:28;;;;;;;15.40;8.57;;;;;;;7.84;88.36;96300.23;1700988;83;21050;-62
2022/11/01 07:33:01;;;;;;;12.27;7.77;;;;;;;7.85;88.37;96303.28;1680802;83;21109;-63
2022/11/01 07:35:28;;;;;;;12.53;9.58;;;;;;;7.88;88.66;96298.03;1722207;83;21909;-62
2022/11/01 07:37:59;;;;;;;13.33;10.77;;;;;;;8.01;89.05;96300.25;1692599;83;21168;-63
2022/11/01 07:40:27;;;;;;;12.67;9.17;;;;;;;8.06;89.00;96290.63;1722750;83;21052;-62
2022/11/01 07:42:59;;;;;;;9.68;7.15;;;;;;;8.15;89.21;96297.67;1721544;83;21470;-62
2022/11/01 07:45:28;;;;;;;9.80;6.93;;;;;;;8.22;89.32;96292.88;1720687;83;21091;-61
2022/11/01 07:48:05;;;;;;;10.77;8.27;;;;;;;8.26;88.92;96289.80;1704083;83;21173;-62
2022/11/01 07:50:29;;;;;;;;;;;;;;;8.32;88.86;96295.09;1692362;83;21084;-63
2022/11/01 07:53:12;;;;;;;10.77;6.37;;;;;;;8.41;89.18;96286.77;1685781;83;20154;-61
2022/11/01 07:55:40;;;;;;;12.20;5.97;;;;;;;8.52;88.60;96297.77;1710322;83;21055;-60
2022/11/01 07:58:08;;;;;;;10.35;7.40;;;;;;;8.56;88.36;96289.86;1698929;83;21079;-63
2022/11/01 08:00:35;;;;;;;19.30;12.78;;;;;;;8.54;87.92;96288.10;1683479;83;21040;-69
2022/11/01 08:03:09;;;;;;;12.85;8.00;;;;;;;8.58;88.12;96291.19;1691810;83;21065;-70
2022/11/01 08:05:37;;;;;;;8.90;6.97;;;;;;;8.62;88.42;96287.69;1695676;83;21101;-72
2022/11/01 08:08:05;;;;;;;10.48;7.70;;;;;;;8.73;88.18;96288.55;1717575;83;21047;-69
2022/11/01 08:10:33;;;;;;;12.65;9.35;;;;;;;8.78;87.88;96289.87;1685455;83;21121;-68
2022/11/01 08:13:07;;;;;;;85.17;40.88;;;;;;;8.81;87.78;96283.28;1728051;82;21140;-66
2022/11/01 08:15:34;;;;;;;78.70;40.08;;;;;;;8.84;87.87;96282.86;1737087;82;21150;-68
2022/11/01 08:18:01;;;;;;;13.75;8.90;;;;;;;8.95;87.92;96274.08;1730777;81;21058;-71
2022/11/01 08:20:28;;;;;;;10.18;8.40;;;;;;;8.90;87.05;96281.10;1721562;82;21028;-71
2022/11/01 08:22:55;;;;;;;12.37;8.48;;;;;;;8.86;86.96;96273.19;1718624;82;21000;-70
2022/11/01 08:25:23;;;;;;;14.33;11.22;;;;;;;8.91;87.22;96277.13;1720940;82;21530;-70
2022/11/01 08:27:50;;;;;;;27.67;23.73;;;;;;;8.98;86.95;96279.33;1727801;82;21044;-71
2022/11/01 08:30:18;;;;;;;16.23;12.40;;;;;;;9.03;87.13;96276.25;1733107;82;21149;-69
2022/11/01 08:32:45;;;;;;;15.40;13.75;;;;;;;9.13;86.88;96273.16;1735376;82;21040;-71
2022/11/01 08:35:12;;;;;;;10.18;6.60;;;;;;;9.12;86.76;96273.58;1710346;82;21091;-73
2022/11/01 08:37:50;;;;;;;9.73;7.60;;;;;;;9.19;86.86;96277.95;1714112;82;21105;-68
2022/11/01 08:40:17;;;;;;;9.73;6.65;;;;;;;9.27;86.22;96274.89;1733270;82;21094;-70
2022/11/01 08:42:44;;;;;;;11.73;7.30;;;;;;;9.37;86.48;96277.03;1719437;82;21002;-68
2022/11/01 08:45:11;;;;;;;8.48;6.33;;;;;;;9.45;86.40;96274.37;1700704;83;21727;-69
2022/11/01 08:47:38;;;;;;;7.20;5.60;;;;;;;9.52;86.43;96270.42;1666767;83;21108;-68
2022/11/01 08:50:08;;;;;;;10.63;6.30;;;;;;;9.54;85.61;96276.53;1707700;83;21205;-67
2022/11/01 08:52:35;;;;;;;9.15;6.40;;;;;;;9.53;85.41;96264.70;1678650;83;21081;-70
2022/11/01 08:55:03;;;;;;;9.43;6.30;;;;;;;9.61;85.73;96271.27;1709479;83;21044;-68
2022/11/01 08:57:30;;;;;;;9.95;6.92;;;;;;;9.57;84.73;96277.41;1712539;83;21089;-68
2022/11/01 08:59:57;;;;;;;7.90;6.10;;;;;;;9.56;85.07;96267.77;1688776;83;21169;-71
2022/11/01 09:02:23;;;;;;;10.68;6.50;;;;;;;9.55;84.80;96270.85;1732300;82;21059;-68
2022/11/01 09:04:50;;;;;;;10.78;6.87;;;;;;;9.55;84.97;96270.85;1708970;81;21519;-69
2022/11/01 09:07:17;;;;;;;7.53;5.70;;;;;;;9.58;84.88;96270.83;1705533;82;21019;-69
2022/11/01 09:09:45;;;;;;;8.00;5.92;;;;;;;9.61;84.74;96272.58;1720145;82;21576;-69
2022/11/01 09:12:12;;;;;;;12.80;6.75;;;;;;;9.57;84.67;96271.69;1718656;83;21030;-69
2022/11/01 09:14:38;;;;;;;8.58;6.40;;;;;;;9.52;84.45;96266.88;1714493;83;21018;-68
2022/11/01 09:17:05;;;;;;;10.98;7.08;;;;;;;9.54;85.02;96269.08;1719704;83;21011;-69
2022/11/01 09:19:31;;;;;;;10.20;7.22;;;;;;;9.66;85.54;96274.75;1720116;83;21108;-68
2022/11/01 09:21:58;;;;;;;10.20;6.25;;;;;;;9.72;85.17;96270.76;1719029;83;21073;-70
2022/11/01 09:24:25;;;;;;;8.50;5.92;;;;;;;9.80;85.20;96265.00;1720301;83;21089;-69
2022/11/01 09:26:51;;;;;;;10.25;6.53;;;;;;;9.91;84.85;96264.52;1720048;83;21125;-68
2022/11/01 09:29:19;;;;;;;13.95;10.35;;;;;;;10.00;84.28;96271.49;1717479;83;21110;-73
2022/11/01 09:31:52;;;;;;;7.85;5.53;;;;;;;10.05;84.18;96266.20;1722331;83;21053;-71
2022/11/01 09:34:20;;;;;;;9.58;6.65;;;;;;;10.09;83.93;96262.22;1717719;83;21679;-75
2022/11/01 09:36:47;;;;;;;7.75;5.65;;;;;;;10.14;83.93;96262.20;1718773;83;21578;-74
2022/11/01 09:39:16;;;;;;;11.70;5.97;;;;;;;10.18;83.79;96260.86;1719000;83;21034;-68
2022/11/01 09:41:57;;;;;;;9.73;6.67;;;;;;;10.25;83.80;96252.89;1719959;83;21136;-73
2022/11/01 09:44:38;;;;;;;9.70;6.08;;;;;;;10.32;83.57;96254.64;1692215;83;21105;-73
2022/11/01 09:47:12;;;;;;;11.00;6.45;;;;;;;10.37;83.46;96256.80;1720850;83;21619;-71
2022/11/01 09:49:43;;;;;;;8.50;5.55;;;;;;;10.50;83.50;96255.81;1715775;83;21090;-71
2022/11/01 09:52:18;;;;;;;7.47;5.45;;;;;;;10.56;82.61;96251.83;1717455;83;21033;-73
2022/11/01 09:54:46;;;;;;;8.20;5.80;;;;;;;10.67;83.37;96256.14;1718064;83;21088;-70
2022/11/01 09:57:39;;;;;;;10.80;6.45;;;;;;;10.80;82.52;96257.33;1715507;83;21599;-71
2022/11/01 10:00:19;;;;;;;8.80;6.37;;;;;;;10.79;81.80;96250.31;1719656;83;21591;-70
2022/11/01 10:03:16;;;;;;;7.92;6.37;;;;;;;10.78;81.87;96248.98;1719049;83;21057;-66
2022/11/01 10:05:49;;;;;;;9.48;6.50;;;;;;;10.76;81.86;96250.34;1719306;83;21602;-68
2022/11/01 10:08:57;;;;;;;11.43;6.85;;;;;;;10.78;82.18;96247.67;1722199;83;21134;-67
2022/11/01 10:11:58;;;;;;;8.08;6.00;;;;;;;10.77;81.75;96244.61;1720158;83;21508;-67
2022/11/01 10:15:00;;;;;;;12.13;6.60;;;;;;;10.78;81.98;96243.26;1710881;83;21038;-68
2022/11/01 10:17:52;;;;;;;10.58;6.62;;;;;;;10.85;82.25;96240.58;1722590;83;21144;-69
2022/11/01 10:20:26;;;;;;;8.20;6.30;;;;;;;10.88;81.61;96236.13;1711091;83;21046;-68
2022/11/01 10:22:53;;;;;;;10.53;7.17;;;;;;;10.92;81.68;96239.64;1716866;83;20982;-68
2022/11/01 10:25:26;;;;;;;12.05;6.75;;;;;;;10.97;81.99;96231.23;1716689;83;21022;-67
2022/11/01 10:28:15;;;;;;;9.15;6.87;;;;;;;10.98;81.50;96234.28;1721077;83;21567;-67
2022/11/01 10:30:47;;;;;;;10.93;6.78;;;;;;;10.96;81.44;96228.13;1708685;83;21085;-67
2022/11/01 10:33:28;;;;;;;8.85;6.55;;;;;;;10.93;81.17;96220.25;1722571;83;21070;-67
2022/11/01 10:36:15;;;;;;;10.10;6.17;;;;;;;10.99;81.48;96220.20;1720178;83;21026;-67
2022/11/01 10:38:47;;;;;;;11.63;7.15;;;;;;;10.97;81.24;96224.62;1720100;83;21141;-67
2022/11/01 10:41:39;;;;;;;10.23;6.75;;;;;;;10.93;81.39;96214.97;1718869;83;21077;-68
2022/11/01 10:44:23;;;;;;;9.28;6.00;;;;;;;11.03;81.64;96214.86;1719155;83;21026;-68
2022/11/01 10:46:52;;;;;;;9.43;6.40;;;;;;;11.09;81.37;96207.34;1723376;83;21631;-68
2022/11/01 10:49:26;;;;;;;8.70;6.50;;;;;;;11.09;80.99;96208.66;1719865;83;21010;-67
2022/11/01 10:51:58;;;;;;;10.58;6.65;;;;;;;11.10;80.87;96206.44;1722018;83;21523;-67
2022/11/01 10:54:29;;;;;;;11.80;6.37;;;;;;;11.17;81.31;96200.20;1719513;83;21033;-67
2022/11/01 10:57:00;;;;;;;11.05;7.08;;;;;;;11.30;81.18;96207.98;1719697;83;21045;-68
2022/11/01 10:59:42;;;;;;;10.80;6.25;;;;;;;11.39;80.79;96198.19;1713305;83;21073;-68
2022/11/01 11:02:33;;;;;;;11.05;6.50;;;;;;;11.64;79.98;96200.08;1719765;83;21057;-67
2022/11/01 11:05:00;;;;;;;8.93;6.90;;;;;;;11.64;79.98;96200.08;1718838;83;21038;-67
2022/11/01 11:07:31;;;;;;;11.08;6.92;;;;;;;11.72;80.07;96196.43;1717218;83;21476;-67
2022/11/01 11:10:02;;;;;;;9.18;6.75;;;;;;;11.73;79.35;96194.23;1719717;83;20995;-67
2022/11/01 11:12:30;;;;;;;11.15;7.12;;;;;;;11.74;79.50;96190.68;1721325;83;21050;-67
2022/11/01 11:15:02;;;;;;;14.63;7.67;;;;;;;11.69;79.16;96192.06;1720069;83;21047;-67
2022/11/01 11:17:42;;;;;;;13.00;7.58;;;;;;;11.94;78.39;96183.37;1717606;83;21058;-67
2022/11/01 11:20:10;;;;;;;10.58;7.45;;;;;;;11.90;78.02;96190.49;1720123;83;21034;-67
2022/11/01 11:22:40;;;;;;;9.90;7.53;;;;;;;12.22;77.13;96179.89;1720758;83;21006;-67
2022/11/01 11:25:18;;;;;;;12.20;6.72;;;;;;;12.93;76.86;96178.23;1721806;83;21063;-68
2022/11/01 11:27:49;;;;;;;8.73;6.30;;;;;;;13.72;75.84;96173.59;1713677;83;21034;-67
2022/11/01 11:30:31;;;;;;;15.72;7.17;;;;;;;14.39;71.51;96168.95;1716260;83;21019;-68
2022/11/01 11:33:00;;;;;;;10.50;8.33;;;;;;;14.89;69.89;96170.82;1717335;83;21057;-68
2022/11/01 11:35:31;;;;;;;14.28;8.93;;;;;;;15.12;68.24;96163.12;1720756;83;21132;-68
2022/11/01 11:38:02;;;;;;;12.35;9.30;;;;;;;15.38;66.90;96161.98;1720323;83;21038;-69
2022/11/01 11:40:44;;;;;;;12.47;8.28;;;;;;;15.85;66.25;96153.98;1724549;83;21026;-68
2022/11/01 11:43:35;;;;;;;7.93;6.97;;;;;;;16.16;64.05;96147.70;1721711;83;21044;-68
2022/11/01 11:46:13;;;;;;;9.10;6.60;;;;;;;16.54;62.29;96154.91;1718802;83;21055;-68
2022/11/01 11:48:55;;;;;;;9.03;6.78;;;;;;;16.93;63.62;96150.50;1719623;83;21038;-68
2022/11/01 11:51:26;;;;;;;9.03;7.80;;;;;;;17.42;62.44;96146.97;1721679;83;21564;-68
2022/11/01 11:54:27;;;;;;;10.05;6.80;;;;;;;17.84;60.48;96138.75;1717286;83;21035;-67
2022/11/01 11:57:11;;;;;;;10.40;7.95;;;;;;;18.18;58.79;96142.80;1719397;83;21567;-68
2022/11/01 11:59:39;;;;;;;8.43;6.92;;;;;;;18.57;57.78;96140.28;1715937;83;21067;-67
2022/11/01 12:02:20;;;;;;;9.03;6.60;;;;;;;18.96;57.89;96143.60;1720269;83;21618;-68
2022/11/01 12:05:02;;;;;;;10.20;7.50;;;;;;;19.11;57.22;96131.38;1720525;83;21025;-68